sensor_id;sensor_type;location;lat;lon;timestamp;pressure;altitude;pressure_sealevel;temperature;humidity
30949;BME280;17637;51.984;21.208;2023-07-13T00:02:05;99887.22;;;17.87;75.32
30949;BME280;17637;51.984;21.208;2023-07-13T00:04:37;99877.16;;;17.91;74.87
30949;BME280;17637;51.984;21.208;2023-07-13T00:07:09;99870.63;;;17.95;74.49
30949;BME280;17637;51.984;21.208;2023-07-13T00:09:41;99870.78;;;17.93;74.27
30949;BME280;17637;51.984;21.208;2023-07-13T00:12:27;99872.75;;;17.83;75.48
30949;BME280;17637;51.984;21.208;2023-07-13T00:15:05;99880.63;;;17.91;74.35
30949;BME280;17637;51.984;21.208;2023-07-13T00:17:37;99874.09;;;17.87;74.88
30949;BME280;17637;51.984;21.208;2023-07-13T00:20:11;99880.97;;;17.96;74.75
30949;BME280;17637;51.984;21.208;2023-07-13T00:22:43;99868.66;;;17.97;74.57
30949;BME280;17637;51.984;21.208;2023-07-13T00:25:15;99863.22;;;17.98;74.46
30949;BME280;17637;51.984;21.208;2023-07-13T00:27:48;99843.03;;;17.82;74.87
30949;BME280;17637;51.984;21.208;2023-07-13T00:30:21;99853.72;;;17.81;75.27
30949;BME280;17637;51.984;21.208;2023-07-13T00:32:53;99863.56;;;17.87;75.10
30949;BME280;17637;51.984;21.208;2023-07-13T00:35:45;99864.25;;;17.81;76.13
30949;BME280;17637;51.984;21.208;2023-07-13T00:38:16;99865.88;;;17.82;75.56
30949;BME280;17637;51.984;21.208;2023-07-13T00:40:49;99868.66;;;17.88;75.40
30949;BME280;17637;51.984;21.208;2023-07-13T00:43:22;99863.03;;;17.92;74.95
30949;BME280;17637;51.984;21.208;2023-07-13T00:48:34;99860.28;;;17.85;74.95
30949;BME280;17637;51.984;21.208;2023-07-13T00:51:08;99867.81;;;17.88;75.06
30949;BME280;17637;51.984;21.208;2023-07-13T00:53:42;99863.56;;;17.95;75.24
30949;BME280;17637;51.984;21.208;2023-07-13T00:56:14;99818.97;;;17.62;75.05
30949;BME280;17637;51.984;21.208;2023-07-13T00:58:46;99853.59;;;17.74;75.61
30949;BME280;17637;51.984;21.208;2023-07-13T01:01:18;99837.84;;;17.74;75.08
30949;BME280;17637;51.984;21.208;2023-07-13T01:03:50;99868.81;;;17.87;74.73
30949;BME280;17637;51.984;21.208;2023-07-13T01:06:21;99848.47;;;17.81;74.51
30949;BME280;17637;51.984;21.208;2023-07-13T01:08:54;99861.91;;;17.94;74.64
30949;BME280;17637;51.984;21.208;2023-07-13T01:11:27;99856.66;;;17.86;74.57
30949;BME280;17637;51.984;21.208;2023-07-13T01:13:59;99864.06;;;17.82;74.39
30949;BME280;17637;51.984;21.208;2023-07-13T01:16:35;99883.06;;;18.09;74.40
30949;BME280;17637;51.984;21.208;2023-07-13T01:21:50;99874.25;;;17.94;74.84
30949;BME280;17637;51.984;21.208;2023-07-13T01:24:22;99871.09;;;17.90;74.71
30949;BME280;17637;51.984;21.208;2023-07-13T01:26:54;99859.59;;;17.91;74.52
30949;BME280;17637;51.984;21.208;2023-07-13T01:29:26;99865.03;;;17.98;74.32
30949;BME280;17637;51.984;21.208;2023-07-13T01:31:58;99872.75;;;17.99;74.82
30949;BME280;17637;51.984;21.208;2023-07-13T01:34:31;99869.63;;;17.96;74.58
30949;BME280;17637;51.984;21.208;2023-07-13T01:37:06;99879.50;;;17.94;74.57
30949;BME280;17637;51.984;21.208;2023-07-13T01:39:39;99887.84;;;17.89;74.61
30949;BME280;17637;51.984;21.208;2023-07-13T01:42:10;99890.28;;;18.07;74.06
30949;BME280;17637;51.984;21.208;2023-07-13T01:44:42;99882.28;;;17.84;75.16
30949;BME280;17637;51.984;21.208;2023-07-13T01:47:15;99896.72;;;18.04;74.35
30949;BME280;17637;51.984;21.208;2023-07-13T01:49:46;99893.75;;;18.08;74.51
30949;BME280;17637;51.984;21.208;2023-07-13T01:52:19;99885.50;;;18.11;74.35
30949;BME280;17637;51.984;21.208;2023-07-13T01:54:50;99876.94;;;18.17;73.95
30949;BME280;17637;51.984;21.208;2023-07-13T01:57:22;99873.81;;;18.22;73.44
30949;BME280;17637;51.984;21.208;2023-07-13T01:59:54;99881.91;;;18.12;74.40
30949;BME280;17637;51.984;21.208;2023-07-13T02:02:26;99856.97;;;17.99;74.32
30949;BME280;17637;51.984;21.208;2023-07-13T02:04:58;99874.75;;;17.97;74.28
30949;BME280;17637;51.984;21.208;2023-07-13T02:07:30;99870.09;;;17.99;74.34
30949;BME280;17637;51.984;21.208;2023-07-13T02:10:02;99850.44;;;17.87;73.93
30949;BME280;17637;51.984;21.208;2023-07-13T02:12:34;99889.34;;;18.00;74.28
30949;BME280;17637;51.984;21.208;2023-07-13T02:15:07;99868.53;;;17.74;74.13
30949;BME280;17637;51.984;21.208;2023-07-13T02:17:39;99897.13;;;17.77;74.77
30949;BME280;17637;51.984;21.208;2023-07-13T02:20:11;99876.44;;;17.65;74.52
30949;BME280;17637;51.984;21.208;2023-07-13T02:22:42;99893.50;;;17.69;74.52
30949;BME280;17637;51.984;21.208;2023-07-13T02:25:14;99902.53;;;17.67;75.08
30949;BME280;17637;51.984;21.208;2023-07-13T02:27:46;99898.63;;;17.63;75.21
30949;BME280;17637;51.984;21.208;2023-07-13T02:30:18;99912.72;;;17.62;74.82
30949;BME280;17637;51.984;21.208;2023-07-13T02:32:50;99908.31;;;17.54;75.72
30949;BME280;17637;51.984;21.208;2023-07-13T02:35:22;99881.09;;;17.22;76.92
30949;BME280;17637;51.984;21.208;2023-07-13T02:37:54;99858.47;;;17.13;76.34
30949;BME280;17637;51.984;21.208;2023-07-13T02:40:26;99906.66;;;17.53;75.73
30949;BME280;17637;51.984;21.208;2023-07-13T02:42:58;99897.50;;;17.32;77.01
30949;BME280;17637;51.984;21.208;2023-07-13T02:45:30;99880.75;;;17.33;75.92
30949;BME280;17637;51.984;21.208;2023-07-13T02:48:02;99901.44;;;17.36;76.09
30949;BME280;17637;51.984;21.208;2023-07-13T02:50:34;99872.56;;;17.28;75.43
30949;BME280;17637;51.984;21.208;2023-07-13T02:53:06;99906.31;;;17.56;75.36
30949;BME280;17637;51.984;21.208;2023-07-13T02:55:38;99902.22;;;17.53;75.25
30949;BME280;17637;51.984;21.208;2023-07-13T02:58:11;99890.44;;;17.41;75.51
30949;BME280;17637;51.984;21.208;2023-07-13T03:00:46;99907.66;;;17.44;75.83
30949;BME280;17637;51.984;21.208;2023-07-13T03:03:18;99862.41;;;17.17;75.60
30949;BME280;17637;51.984;21.208;2023-07-13T03:05:58;99893.69;;;17.43;75.21
30949;BME280;17637;51.984;21.208;2023-07-13T03:08:31;99900.44;;;17.46;75.61
30949;BME280;17637;51.984;21.208;2023-07-13T03:11:06;99902.75;;;17.49;74.67
30949;BME280;17637;51.984;21.208;2023-07-13T03:13:40;99910.28;;;17.44;74.82
30949;BME280;17637;51.984;21.208;2023-07-13T03:16:12;99862.41;;;17.17;74.93
30949;BME280;17637;51.984;21.208;2023-07-13T03:18:49;99892.25;;;17.32;75.15
30949;BME280;17637;51.984;21.208;2023-07-13T03:21:21;99908.16;;;17.39;75.04
30949;BME280;17637;51.984;21.208;2023-07-13T03:23:53;99880.44;;;17.28;74.83
30949;BME280;17637;51.984;21.208;2023-07-13T03:26:25;99908.00;;;17.49;75.03
30949;BME280;17637;51.984;21.208;2023-07-13T03:28:57;99902.06;;;17.47;75.23
30949;BME280;17637;51.984;21.208;2023-07-13T03:31:33;99873.84;;;17.41;75.22
30949;BME280;17637;51.984;21.208;2023-07-13T03:34:05;99876.47;;;17.49;74.80
30949;BME280;17637;51.984;21.208;2023-07-13T03:36:37;99901.72;;;17.58;75.68
30949;BME280;17637;51.984;21.208;2023-07-13T03:39:09;99868.06;;;17.53;74.84
30949;BME280;17637;51.984;21.208;2023-07-13T03:41:41;99864.28;;;17.64;74.77
30949;BME280;17637;51.984;21.208;2023-07-13T03:44:13;99895.75;;;17.97;74.21
30949;BME280;17637;51.984;21.208;2023-07-13T03:46:45;99885.38;;;18.35;72.30
30949;BME280;17637;51.984;21.208;2023-07-13T03:49:17;99880.19;;;18.27;72.70
30949;BME280;17637;51.984;21.208;2023-07-13T03:51:48;99875.72;;;18.28;72.84
30949;BME280;17637;51.984;21.208;2023-07-13T03:54:24;99872.59;;;18.32;72.72
30949;BME280;17637;51.984;21.208;2023-07-13T03:56:56;99880.91;;;18.44;72.98
30949;BME280;17637;51.984;21.208;2023-07-13T03:59:28;99885.97;;;18.54;73.41
30949;BME280;17637;51.984;21.208;2023-07-13T04:02:00;99878.84;;;18.63;74.02
30949;BME280;17637;51.984;21.208;2023-07-13T04:04:32;99820.19;;;18.31;73.06
30949;BME280;17637;51.984;21.208;2023-07-13T04:07:04;99885.63;;;18.80;73.79
30949;BME280;17637;51.984;21.208;2023-07-13T04:09:36;99874.88;;;18.90;73.08
30949;BME280;17637;51.984;21.208;2023-07-13T04:12:08;99859.09;;;18.90;73.04
30949;BME280;17637;51.984;21.208;2023-07-13T04:14:40;99887.22;;;19.13;73.40
30949;BME280;17637;51.984;21.208;2023-07-13T04:17:12;99890.06;;;19.26;72.97
30949;BME280;17637;51.984;21.208;2023-07-13T04:19:44;99884.88;;;19.33;73.42
30949;BME280;17637;51.984;21.208;2023-07-13T04:22:15;99876.84;;;19.49;72.87
30949;BME280;17637;51.984;21.208;2023-07-13T04:24:47;99904.03;;;19.80;72.89
30949;BME280;17637;51.984;21.208;2023-07-13T04:27:19;99904.00;;;19.88;72.18
30949;BME280;17637;51.984;21.208;2023-07-13T04:29:53;99916.22;;;20.11;71.93
30949;BME280;17637;51.984;21.208;2023-07-13T04:32:25;99917.94;;;20.33;71.31
30949;BME280;17637;51.984;21.208;2023-07-13T04:34:57;99895.25;;;20.39;70.67
30949;BME280;17637;51.984;21.208;2023-07-13T04:37:30;99916.00;;;20.79;70.69
30949;BME280;17637;51.984;21.208;2023-07-13T04:40:03;99917.56;;;20.88;70.48
30949;BME280;17637;51.984;21.208;2023-07-13T04:42:35;99888.00;;;20.78;70.75
30949;BME280;17637;51.984;21.208;2023-07-13T04:45:07;99928.47;;;20.85;71.44
30949;BME280;17637;51.984;21.208;2023-07-13T04:47:39;99940.19;;;20.97;70.68
30949;BME280;17637;51.984;21.208;2023-07-13T04:50:13;99945.56;;;20.89;71.71
30949;BME280;17637;51.984;21.208;2023-07-13T04:52:52;99943.31;;;20.86;71.38
30949;BME280;17637;51.984;21.208;2023-07-13T04:55:24;99924.84;;;20.86;71.28
30949;BME280;17637;51.984;21.208;2023-07-13T04:57:57;99931.41;;;20.97;71.71
30949;BME280;17637;51.984;21.208;2023-07-13T05:00:30;99940.03;;;21.06;71.44
30949;BME280;17637;51.984;21.208;2023-07-13T05:03:02;99914.53;;;20.91;70.29
30949;BME280;17637;51.984;21.208;2023-07-13T05:05:35;99933.94;;;21.05;70.75
30949;BME280;17637;51.984;21.208;2023-07-13T05:08:06;99933.38;;;21.10;70.77
30949;BME280;17637;51.984;21.208;2023-07-13T05:10:39;99914.63;;;21.05;70.04
30949;BME280;17637;51.984;21.208;2023-07-13T05:13:10;99929.84;;;21.24;70.83
30949;BME280;17637;51.984;21.208;2023-07-13T05:15:42;99936.78;;;21.25;69.90
30949;BME280;17637;51.984;21.208;2023-07-13T05:18:14;99942.06;;;21.25;69.45
30949;BME280;17637;51.984;21.208;2023-07-13T05:20:46;99931.00;;;21.15;69.85
30949;BME280;17637;51.984;21.208;2023-07-13T05:23:18;99955.03;;;21.20;70.24
30949;BME280;17637;51.984;21.208;2023-07-13T05:25:50;99938.47;;;21.11;71.13
30949;BME280;17637;51.984;21.208;2023-07-13T05:28:21;99951.19;;;21.23;70.68
30949;BME280;17637;51.984;21.208;2023-07-13T05:30:53;99949.75;;;21.20;70.76
30949;BME280;17637;51.984;21.208;2023-07-13T05:33:26;99966.34;;;21.36;70.57
30949;BME280;17637;51.984;21.208;2023-07-13T05:35:58;99937.78;;;21.24;70.92
30949;BME280;17637;51.984;21.208;2023-07-13T05:38:32;99972.88;;;21.61;69.63
30949;BME280;17637;51.984;21.208;2023-07-13T05:41:04;99974.44;;;21.56;69.64
30949;BME280;17637;51.984;21.208;2023-07-13T05:43:36;99961.78;;;21.51;70.24
30949;BME280;17637;51.984;21.208;2023-07-13T05:46:09;99955.41;;;21.45;68.88
30949;BME280;17637;51.984;21.208;2023-07-13T05:48:40;99956.88;;;21.48;68.26
30949;BME280;17637;51.984;21.208;2023-07-13T05:51:12;99964.69;;;21.56;67.94
30949;BME280;17637;51.984;21.208;2023-07-13T05:53:44;99944.25;;;21.43;68.06
30949;BME280;17637;51.984;21.208;2023-07-13T05:56:16;99968.91;;;21.79;67.46
30949;BME280;17637;51.984;21.208;2023-07-13T05:58:49;99993.09;;;22.04;66.88
30949;BME280;17637;51.984;21.208;2023-07-13T06:01:21;99975.41;;;22.05;66.90
30949;BME280;17637;51.984;21.208;2023-07-13T06:03:54;99962.97;;;22.05;66.57
30949;BME280;17637;51.984;21.208;2023-07-13T06:06:26;99963.63;;;22.14;66.76
30949;BME280;17637;51.984;21.208;2023-07-13T06:08:58;99983.59;;;22.17;67.25
30949;BME280;17637;51.984;21.208;2023-07-13T06:11:29;99969.06;;;22.06;66.29
30949;BME280;17637;51.984;21.208;2023-07-13T06:14:01;99933.06;;;21.70;67.21
30949;BME280;17637;51.984;21.208;2023-07-13T06:16:33;99983.19;;;22.20;66.02
30949;BME280;17637;51.984;21.208;2023-07-13T06:19:05;99956.22;;;21.96;66.72
30949;BME280;17637;51.984;21.208;2023-07-13T06:21:37;99971.84;;;22.26;66.37
30949;BME280;17637;51.984;21.208;2023-07-13T06:24:10;99974.75;;;22.38;67.17
30949;BME280;17637;51.984;21.208;2023-07-13T06:26:42;99983.56;;;22.52;67.14
30949;BME280;17637;51.984;21.208;2023-07-13T06:29:13;99958.63;;;22.33;66.00
30949;BME280;17637;51.984;21.208;2023-07-13T06:31:46;99922.66;;;22.03;66.57
30949;BME280;17637;51.984;21.208;2023-07-13T06:34:17;99972.75;;;22.40;66.09
30949;BME280;17637;51.984;21.208;2023-07-13T06:36:49;99974.84;;;22.58;66.05
30949;BME280;17637;51.984;21.208;2023-07-13T06:39:21;99985.31;;;22.86;66.87
30949;BME280;17637;51.984;21.208;2023-07-13T06:41:53;99955.16;;;22.94;65.14
30949;BME280;17637;51.984;21.208;2023-07-13T06:44:25;99926.25;;;22.86;65.56
30949;BME280;17637;51.984;21.208;2023-07-13T06:46:56;99962.16;;;23.29;64.45
30949;BME280;17637;51.984;21.208;2023-07-13T06:49:28;99967.28;;;23.43;64.41
30949;BME280;17637;51.984;21.208;2023-07-13T06:52:00;99961.72;;;23.99;60.84
30949;BME280;17637;51.984;21.208;2023-07-13T06:54:32;99949.91;;;23.74;61.91
30949;BME280;17637;51.984;21.208;2023-07-13T06:57:04;99948.00;;;24.08;61.33
30949;BME280;17637;51.984;21.208;2023-07-13T06:59:36;99957.34;;;24.24;60.58
30949;BME280;17637;51.984;21.208;2023-07-13T07:02:10;99955.19;;;23.81;61.47
30949;BME280;17637;51.984;21.208;2023-07-13T07:04:42;99956.22;;;24.00;59.47
30949;BME280;17637;51.984;21.208;2023-07-13T07:07:13;99959.00;;;24.19;59.76
30949;BME280;17637;51.984;21.208;2023-07-13T07:09:46;99956.50;;;24.37;58.97
30949;BME280;17637;51.984;21.208;2023-07-13T07:12:18;99967.72;;;24.33;57.90
30949;BME280;17637;51.984;21.208;2023-07-13T07:14:49;99974.81;;;24.52;59.06
30949;BME280;17637;51.984;21.208;2023-07-13T07:17:21;99955.88;;;24.35;59.92
30949;BME280;17637;51.984;21.208;2023-07-13T07:19:55;99980.34;;;24.44;58.75
30949;BME280;17637;51.984;21.208;2023-07-13T07:22:27;99965.75;;;24.15;59.29
30949;BME280;17637;51.984;21.208;2023-07-13T07:24:59;99961.47;;;24.14;58.83
30949;BME280;17637;51.984;21.208;2023-07-13T07:27:32;99970.53;;;24.51;57.98
30949;BME280;17637;51.984;21.208;2023-07-13T07:30:07;99952.28;;;25.00;57.54
30949;BME280;17637;51.984;21.208;2023-07-13T07:32:42;99967.06;;;25.53;55.79
30949;BME280;17637;51.984;21.208;2023-07-13T07:35:28;99960.72;;;25.73;54.96
30949;BME280;17637;51.984;21.208;2023-07-13T07:38:03;99948.66;;;25.20;54.72
30949;BME280;17637;51.984;21.208;2023-07-13T07:40:40;99968.53;;;25.68;54.60
30949;BME280;17637;51.984;21.208;2023-07-13T07:43:15;99970.88;;;26.01;54.48
30949;BME280;17637;51.984;21.208;2023-07-13T07:45:47;99945.44;;;26.06;52.19
30949;BME280;17637;51.984;21.208;2023-07-13T07:48:19;99982.41;;;25.70;51.74
30949;BME280;17637;51.984;21.208;2023-07-13T07:50:50;99972.63;;;25.70;52.57
30949;BME280;17637;51.984;21.208;2023-07-13T07:53:22;99963.94;;;25.75;51.63
30949;BME280;17637;51.984;21.208;2023-07-13T07:55:54;99982.81;;;25.74;51.36
30949;BME280;17637;51.984;21.208;2023-07-13T07:58:29;99977.88;;;26.33;52.65
30949;BME280;17637;51.984;21.208;2023-07-13T08:01:05;99982.13;;;26.71;52.39
30949;BME280;17637;51.984;21.208;2023-07-13T08:03:40;99982.94;;;26.23;51.91
30949;BME280;17637;51.984;21.208;2023-07-13T08:06:15;99982.13;;;26.71;52.44
30949;BME280;17637;51.984;21.208;2023-07-13T08:09:07;99979.47;;;26.41;51.86
30949;BME280;17637;51.984;21.208;2023-07-13T08:11:40;99966.28;;;26.27;51.56
30949;BME280;17637;51.984;21.208;2023-07-13T08:14:14;99949.38;;;26.52;51.55
30949;BME280;17637;51.984;21.208;2023-07-13T08:16:47;99970.59;;;26.77;50.57
30949;BME280;17637;51.984;21.208;2023-07-13T08:19:19;99970.06;;;26.68;50.93
30949;BME280;17637;51.984;21.208;2023-07-13T08:21:51;99971.44;;;26.59;49.86
30949;BME280;17637;51.984;21.208;2023-07-13T08:24:24;99975.41;;;26.99;49.38
30949;BME280;17637;51.984;21.208;2023-07-13T08:26:55;99969.66;;;27.14;49.17
30949;BME280;17637;51.984;21.208;2023-07-13T08:29:27;99961.44;;;26.73;49.13
30949;BME280;17637;51.984;21.208;2023-07-13T08:31:59;99963.41;;;27.32;50.00
30949;BME280;17637;51.984;21.208;2023-07-13T08:34:31;99953.19;;;27.17;46.40
30949;BME280;17637;51.984;21.208;2023-07-13T08:37:03;99962.19;;;26.92;47.35
30949;BME280;17637;51.984;21.208;2023-07-13T08:39:35;99950.16;;;26.71;47.83
30949;BME280;17637;51.984;21.208;2023-07-13T08:47:22;99946.97;;;27.47;45.84
30949;BME280;17637;51.984;21.208;2023-07-13T08:49:55;99961.81;;;27.78;46.81
30949;BME280;17637;51.984;21.208;2023-07-13T08:52:37;99959.69;;;28.16;45.90
30949;BME280;17637;51.984;21.208;2023-07-13T08:55:27;99957.72;;;27.88;47.85
30949;BME280;17637;51.984;21.208;2023-07-13T08:58:15;99960.56;;;28.34;46.42
30949;BME280;17637;51.984;21.208;2023-07-13T09:00:56;99968.81;;;28.73;46.80
30949;BME280;17637;51.984;21.208;2023-07-13T09:03:38;99944.81;;;28.20;45.41
30949;BME280;17637;51.984;21.208;2023-07-13T09:06:14;99947.31;;;28.39;46.08
30949;BME280;17637;51.984;21.208;2023-07-13T09:08:57;99966.09;;;28.44;46.78
30949;BME280;17637;51.984;21.208;2023-07-13T09:14:42;99956.16;;;28.68;44.79
30949;BME280;17637;51.984;21.208;2023-07-13T09:17:20;99958.13;;;29.07;45.94
30949;BME280;17637;51.984;21.208;2023-07-13T09:20:02;99962.94;;;29.39;44.84
30949;BME280;17637;51.984;21.208;2023-07-13T09:22:37;99957.56;;;28.88;46.01
30949;BME280;17637;51.984;21.208;2023-07-13T09:25:31;99962.78;;;29.62;44.37
30949;BME280;17637;51.984;21.208;2023-07-13T09:28:16;99960.38;;;28.81;44.88
30949;BME280;17637;51.984;21.208;2023-07-13T09:31:06;99956.84;;;29.09;45.12
30949;BME280;17637;51.984;21.208;2023-07-13T09:33:39;99955.41;;;29.36;44.38
30949;BME280;17637;51.984;21.208;2023-07-13T09:36:29;99947.91;;;28.87;44.49
30949;BME280;17637;51.984;21.208;2023-07-13T09:39:37;99951.81;;;28.96;44.20
30949;BME280;17637;51.984;21.208;2023-07-13T09:42:19;99953.03;;;28.59;45.04
30949;BME280;17637;51.984;21.208;2023-07-13T09:44:56;99947.06;;;28.40;44.59
30949;BME280;17637;51.984;21.208;2023-07-13T09:47:30;99941.97;;;28.39;44.56
30949;BME280;17637;51.984;21.208;2023-07-13T09:50:06;99904.34;;;27.88;45.40
30949;BME280;17637;51.984;21.208;2023-07-13T09:55:36;99919.56;;;28.57;45.33
30949;BME280;17637;51.984;21.208;2023-07-13T09:58:16;99920.78;;;29.29;45.36
30949;BME280;17637;51.984;21.208;2023-07-13T10:01:03;99911.09;;;29.62;45.28
30949;BME280;17637;51.984;21.208;2023-07-13T10:03:51;99894.16;;;29.78;44.32
30949;BME280;17637;51.984;21.208;2023-07-13T10:06:24;99902.53;;;29.43;44.07
30949;BME280;17637;51.984;21.208;2023-07-13T10:08:58;99896.78;;;29.73;42.52
30949;BME280;17637;51.984;21.208;2023-07-13T10:11:30;99880.84;;;30.06;43.90
30949;BME280;17637;51.984;21.208;2023-07-13T10:14:09;99863.13;;;30.27;43.45
30949;BME280;17637;51.984;21.208;2023-07-13T10:16:44;99876.31;;;28.89;41.87
30949;BME280;17637;51.984;21.208;2023-07-13T10:19:25;99880.25;;;29.37;40.68
30949;BME280;17637;51.984;21.208;2023-07-13T10:22:00;99879.88;;;29.51;42.21
30949;BME280;17637;51.984;21.208;2023-07-13T10:24:36;99877.91;;;29.85;42.29
30949;BME280;17637;51.984;21.208;2023-07-13T10:27:15;99864.47;;;28.68;42.29
30949;BME280;17637;51.984;21.208;2023-07-13T10:29:52;99869.91;;;28.90;42.60
30949;BME280;17637;51.984;21.208;2023-07-13T10:32:26;99849.53;;;29.06;43.42
30949;BME280;17637;51.984;21.208;2023-07-13T10:34:58;99856.34;;;29.13;42.96
30949;BME280;17637;51.984;21.208;2023-07-13T10:37:51;99830.47;;;28.34;44.49
30949;BME280;17637;51.984;21.208;2023-07-13T10:40:48;99828.91;;;28.21;43.81
30949;BME280;17637;51.984;21.208;2023-07-13T10:43:28;99830.09;;;28.42;44.22
30949;BME280;17637;51.984;21.208;2023-07-13T10:46:06;99846.66;;;28.27;43.52
30949;BME280;17637;51.984;21.208;2023-07-13T10:48:40;99852.06;;;28.15;45.99
30949;BME280;17637;51.984;21.208;2023-07-13T10:51:16;99842.41;;;28.14;45.52
30949;BME280;17637;51.984;21.208;2023-07-13T10:56:53;99799.84;;;27.67;45.35
30949;BME280;17637;51.984;21.208;2023-07-13T10:59:39;99815.50;;;27.75;46.71
30949;BME280;17637;51.984;21.208;2023-07-13T11:02:26;99855.31;;;27.65;46.92
30949;BME280;17637;51.984;21.208;2023-07-13T11:05:17;99857.19;;;27.29;49.39
30949;BME280;17637;51.984;21.208;2023-07-13T11:08:03;99863.19;;;26.77;56.08
30949;BME280;17637;51.984;21.208;2023-07-13T11:10:51;99876.69;;;26.33;58.45
30949;BME280;17637;51.984;21.208;2023-07-13T11:19:37;99914.59;;;24.46;63.63
30949;BME280;17637;51.984;21.208;2023-07-13T11:25:01;99947.56;;;22.16;67.08
30949;BME280;17637;51.984;21.208;2023-07-13T11:27:41;99925.22;;;22.25;65.87
30949;BME280;17637;51.984;21.208;2023-07-13T11:33:04;99973.22;;;21.37;68.77
30949;BME280;17637;51.984;21.208;2023-07-13T11:35:49;100018.53;;;21.12;69.75
30949;BME280;17637;51.984;21.208;2023-07-13T11:38:27;100028.94;;;20.17;72.35
30949;BME280;17637;51.984;21.208;2023-07-13T11:41:03;100060.28;;;19.74;74.80
30949;BME280;17637;51.984;21.208;2023-07-13T11:43:35;100062.22;;;19.33;75.33
30949;BME280;17637;51.984;21.208;2023-07-13T11:46:14;100059.19;;;18.82;77.72
30949;BME280;17637;51.984;21.208;2023-07-13T11:48:47;100049.44;;;18.51;80.65
30949;BME280;17637;51.984;21.208;2023-07-13T11:51:25;100050.75;;;18.47;79.99
30949;BME280;17637;51.984;21.208;2023-07-13T11:54:01;99997.28;;;17.98;80.68
30949;BME280;17637;51.984;21.208;2023-07-13T11:56:36;100042.28;;;18.03;82.24
30949;BME280;17637;51.984;21.208;2023-07-13T11:59:11;100031.94;;;18.10;82.91
30949;BME280;17637;51.984;21.208;2023-07-13T12:01:49;100033.09;;;17.91;83.21
30949;BME280;17637;51.984;21.208;2023-07-13T12:04:27;100034.06;;;17.98;82.88
30949;BME280;17637;51.984;21.208;2023-07-13T12:07:14;100023.56;;;17.82;83.79
30949;BME280;17637;51.984;21.208;2023-07-13T12:09:46;100006.97;;;17.98;82.92
30949;BME280;17637;51.984;21.208;2023-07-13T12:12:21;100042.13;;;18.22;83.30
30949;BME280;17637;51.984;21.208;2023-07-13T12:14:53;100046.88;;;18.18;83.64
30949;BME280;17637;51.984;21.208;2023-07-13T12:17:26;100032.59;;;18.04;84.06
30949;BME280;17637;51.984;21.208;2023-07-13T12:19:58;100022.91;;;18.13;82.33
30949;BME280;17637;51.984;21.208;2023-07-13T12:22:30;100028.47;;;18.10;82.25
30949;BME280;17637;51.984;21.208;2023-07-13T12:25:02;100013.03;;;17.98;82.27
30949;BME280;17637;51.984;21.208;2023-07-13T12:27:36;100041.97;;;18.07;82.12
30949;BME280;17637;51.984;21.208;2023-07-13T12:30:25;100053.28;;;18.07;83.49
30949;BME280;17637;51.984;21.208;2023-07-13T12:33:06;100037.84;;;18.12;82.75
30949;BME280;17637;51.984;21.208;2023-07-13T12:35:46;100039.31;;;18.23;82.53
30949;BME280;17637;51.984;21.208;2023-07-13T12:38:18;100025.50;;;18.29;82.03
30949;BME280;17637;51.984;21.208;2023-07-13T12:40:53;99992.69;;;18.00;82.05
30949;BME280;17637;51.984;21.208;2023-07-13T12:43:25;100049.00;;;18.31;82.14
30949;BME280;17637;51.984;21.208;2023-07-13T12:46:02;100027.00;;;18.15;81.09
30949;BME280;17637;51.984;21.208;2023-07-13T12:48:39;100060.63;;;18.36;81.91
30949;BME280;17637;51.984;21.208;2023-07-13T12:51:25;100068.88;;;18.33;82.09
30949;BME280;17637;51.984;21.208;2023-07-13T12:54:12;100064.88;;;18.54;81.36
30949;BME280;17637;51.984;21.208;2023-07-13T12:56:49;100058.81;;;18.45;81.39
30949;BME280;17637;51.984;21.208;2023-07-13T12:59:25;100067.50;;;18.54;80.79
30949;BME280;17637;51.984;21.208;2023-07-13T13:02:00;100074.00;;;18.75;81.50
30949;BME280;17637;51.984;21.208;2023-07-13T13:04:32;100081.53;;;18.86;79.94
30949;BME280;17637;51.984;21.208;2023-07-13T13:07:08;100078.53;;;18.89;80.01
30949;BME280;17637;51.984;21.208;2023-07-13T13:09:41;100070.78;;;19.04;80.51
30949;BME280;17637;51.984;21.208;2023-07-13T13:12:13;100080.97;;;19.07;79.20
30949;BME280;17637;51.984;21.208;2023-07-13T13:14:45;100082.47;;;19.01;79.47
30949;BME280;17637;51.984;21.208;2023-07-13T13:17:29;100087.38;;;19.13;81.43
30949;BME280;17637;51.984;21.208;2023-07-13T13:20:13;100088.16;;;19.22;83.34
30949;BME280;17637;51.984;21.208;2023-07-13T13:22:45;100079.47;;;19.13;79.83
30949;BME280;17637;51.984;21.208;2023-07-13T13:25:17;100080.56;;;19.18;79.65
30949;BME280;17637;51.984;21.208;2023-07-13T13:27:49;100093.31;;;19.38;80.32
30949;BME280;17637;51.984;21.208;2023-07-13T13:30:21;100092.38;;;19.31;82.89
30949;BME280;17637;51.984;21.208;2023-07-13T13:32:53;100076.28;;;19.17;83.79
30949;BME280;17637;51.984;21.208;2023-07-13T13:35:25;100109.28;;;19.37;82.50
30949;BME280;17637;51.984;21.208;2023-07-13T13:37:58;100109.53;;;19.50;81.32
30949;BME280;17637;51.984;21.208;2023-07-13T13:40:30;100106.91;;;19.50;79.13
30949;BME280;17637;51.984;21.208;2023-07-13T13:43:04;100096.28;;;19.35;78.80
30949;BME280;17637;51.984;21.208;2023-07-13T13:45:36;100106.59;;;19.45;82.25
30949;BME280;17637;51.984;21.208;2023-07-13T13:48:14;100090.63;;;19.70;80.71
30949;BME280;17637;51.984;21.208;2023-07-13T13:50:48;100094.22;;;19.54;80.53
30949;BME280;17637;51.984;21.208;2023-07-13T13:53:20;100089.53;;;19.64;81.53
30949;BME280;17637;51.984;21.208;2023-07-13T13:55:52;100099.28;;;19.55;78.62
30949;BME280;17637;51.984;21.208;2023-07-13T13:58:24;100091.28;;;19.72;78.97